createdAt,value
2019-02-16T00:01:22.943Z,102667.58
2019-02-16T00:04:05.618Z,102685.05
2019-02-16T00:06:54.947Z,102646.48
2019-02-16T00:09:37.472Z,102650.11
2019-02-16T00:12:26.807Z,102675.27
2019-02-16T00:15:08.473Z,102635.28
2019-02-16T00:17:39.083Z,102668.92
2019-02-16T00:20:28.479Z,102641.47
2019-02-16T00:26:18.928Z,102664.27
2019-02-16T00:29:08.217Z,102672.49
2019-02-16T00:31:50.861Z,102640.73
2019-02-16T00:34:40.544Z,102645.20
2019-02-16T00:37:22.956Z,102665.98
2019-02-16T00:40:12.609Z,102665.52
2019-02-16T00:42:54.818Z,102640.84
2019-02-16T00:45:44.173Z,102633.33
2019-02-16T00:48:28.149Z,102625.75
2019-02-16T00:51:13.704Z,102659.77
2019-02-16T00:56:48.260Z,102619.22
2019-02-16T00:59:37.684Z,102613.02
2019-02-16T01:02:27.036Z,102614.42
2019-02-16T01:05:16.814Z,102609.22
2019-02-16T01:07:58.807Z,102609.13
2019-02-16T01:10:48.382Z,102645.89
2019-02-16T01:13:30.978Z,102610.60
2019-02-16T01:16:13.180Z,102600.75
2019-02-16T01:19:02.898Z,102633.69
2019-02-16T01:21:44.552Z,102622.39
2019-02-16T01:24:34.379Z,102621.45
2019-02-16T01:30:31.388Z,102609.72
2019-02-16T01:33:20.837Z,102603.14
2019-02-16T01:36:03.076Z,102563.78
2019-02-16T01:41:52.991Z,102552.90
2019-02-16T01:44:42.310Z,102552.09
2019-02-16T01:47:25.118Z,102594.72
2019-02-16T01:53:21.273Z,102550.91
2019-02-16T01:56:10.656Z,102556.05
2019-02-16T01:58:52.997Z,102556.13
2019-02-16T02:01:42.378Z,102581.09
2019-02-16T02:04:24.673Z,102542.37
2019-02-16T02:07:13.975Z,102574.50
2019-02-16T02:09:55.776Z,102568.48
2019-02-16T02:12:45.059Z,102535.17
2019-02-16T02:15:27.492Z,102563.52
2019-02-16T02:18:16.914Z,102565.61
2019-02-16T02:20:47.300Z,102567.41
2019-02-16T02:23:36.651Z,102535.34
2019-02-16T02:26:18.469Z,102559.22
2019-02-16T02:29:07.958Z,102554.48
2019-02-16T02:31:49.691Z,102544.63
2019-02-16T02:34:39.098Z,102515.23
2019-02-16T02:37:20.681Z,102510.05
2019-02-16T02:40:10.073Z,102505.67
2019-02-16T02:42:52.494Z,102540.66
2019-02-16T02:45:41.919Z,102532.43
2019-02-16T02:48:24.037Z,102503.16
2019-02-16T02:51:07.683Z,102529.52
2019-02-16T02:53:49.284Z,102532.88
2019-02-16T02:56:38.557Z,102522.61
2019-02-16T02:59:28.263Z,102519.85
2019-02-16T03:02:09.796Z,102488.52
2019-02-16T03:04:59.270Z,102482.13
2019-02-16T03:07:40.876Z,102478.86
2019-02-16T03:10:31.531Z,102509.13
2019-02-16T03:13:15.417Z,102503.25
2019-02-16T03:15:57.826Z,102464.61
2019-02-16T03:18:47.204Z,102494.37
2019-02-16T03:21:29.279Z,102489.09
2019-02-16T03:27:30.645Z,102457.13
2019-02-16T03:30:58.204Z,102486.06
2019-02-16T03:36:15.028Z,102449.47
2019-02-16T03:39:42.882Z,102447.30
2019-02-16T03:42:32.497Z,102440.88
2019-02-16T03:45:14.667Z,102453.58
2019-02-16T03:48:04.919Z,102451.20
2019-02-16T03:50:54.277Z,102489.88
2019-02-16T03:53:36.084Z,102482.83
2019-02-16T03:56:25.382Z,102453.42
2019-02-16T03:59:09.788Z,102445.50
2019-02-16T04:01:59.161Z,102471.20
2019-02-16T04:04:40.800Z,102477.35
2019-02-16T04:07:30.757Z,102478.92
2019-02-16T04:10:12.781Z,102456.70
2019-02-16T04:13:02.374Z,102443.22
2019-02-16T04:15:45.038Z,102430.49
2019-02-16T04:18:34.398Z,102468.95
2019-02-16T04:21:16.838Z,102469.01
2019-02-16T04:24:06.211Z,102463.18
2019-02-16T04:26:49.066Z,102464.36
2019-02-16T04:29:38.451Z,102468.69
2019-02-16T04:32:20.273Z,102458.31
2019-02-16T04:35:09.598Z,102457.02
2019-02-16T04:37:40.161Z,102461.41
2019-02-16T04:40:10.385Z,102470.34
2019-02-16T04:42:59.827Z,102431.36
2019-02-16T04:45:42.055Z,102463.11
2019-02-16T04:48:25.340Z,102459.69
2019-02-16T04:51:14.602Z,102429.58
2019-02-16T04:53:56.691Z,102424.69
2019-02-16T04:59:47.088Z,102452.86
2019-02-16T05:02:36.425Z,102418.44
2019-02-16T05:05:18.668Z,102413.42
2019-02-16T05:08:08.066Z,102458.17
2019-02-16T05:10:50.517Z,102424.48
2019-02-16T05:13:40.057Z,102416.74
2019-02-16T05:16:21.719Z,102410.45
2019-02-16T05:19:11.324Z,102400.53
2019-02-16T05:22:00.692Z,102396.78
2019-02-16T05:24:42.963Z,102399.53
2019-02-16T05:27:32.540Z,102438.08
2019-02-16T05:30:14.299Z,102441.27
2019-02-16T05:33:03.688Z,102444.06
2019-02-16T05:35:52.979Z,102407.17
2019-02-16T05:38:42.571Z,102408.38
2019-02-16T05:41:25.142Z,102442.09
2019-02-16T05:44:07.049Z,102408.45
2019-02-16T05:46:56.422Z,102429.80
2019-02-16T05:49:38.759Z,102433.63
2019-02-16T05:52:28.369Z,102406.96
2019-02-16T05:55:10.987Z,102397.59
2019-02-16T06:01:02.030Z,102406.03
2019-02-16T06:03:51.285Z,102408.58
2019-02-16T06:06:33.347Z,102443.37
2019-02-16T06:09:22.723Z,102399.94
2019-02-16T06:12:04.939Z,102386.18
2019-02-16T06:14:54.286Z,102376.86
2019-02-16T06:17:36.840Z,102415.40
2019-02-16T06:20:26.177Z,102418.69
2019-02-16T06:23:08.235Z,102425.73
2019-02-16T06:25:57.619Z,102396.05
2019-02-16T06:28:40.441Z,102439.92
2019-02-16T06:34:17.261Z,102450.14
2019-02-16T06:37:25.412Z,102417.97
2019-02-16T06:40:07.918Z,102458.20
2019-02-16T06:42:57.229Z,102459.68
2019-02-16T06:45:39.111Z,102414.53
2019-02-16T06:48:28.433Z,102454.81
2019-02-16T06:51:10.110Z,102455.23
2019-02-16T06:53:59.515Z,102463.66
2019-02-16T06:57:00.531Z,102429.40
2019-02-16T06:59:50.093Z,102471.88
2019-02-16T07:02:31.894Z,102471.14
2019-02-16T07:05:14.056Z,102458.40
2019-02-16T07:08:03.408Z,102435.91
2019-02-16T07:10:45.449Z,102471.24
2019-02-16T07:19:57.721Z,102430.16
2019-02-16T07:22:27.924Z,102460.33
2019-02-16T07:25:17.293Z,102429.50
2019-02-16T07:27:59.224Z,102425.27
2019-02-16T07:30:48.831Z,102457.82
2019-02-16T07:33:30.775Z,102428.31
2019-02-16T07:36:22.089Z,102457.52
2019-02-16T07:39:04.830Z,102416.69
2019-02-16T07:41:54.201Z,102413.48
2019-02-16T07:44:56.718Z,102414.78
2019-02-16T07:48:04.972Z,102428.34
2019-02-16T07:51:11.415Z,102460.52
2019-02-16T07:54:21.617Z,102458.44
2019-02-16T07:57:10.907Z,102464.94
2019-02-16T08:00:19.061Z,102469.72
2019-02-16T08:03:19.925Z,102442.55
2019-02-16T08:06:18.302Z,102444.63
2019-02-16T08:09:20.110Z,102446.63
2019-02-16T08:12:29.275Z,102470.52
2019-02-16T08:15:18.652Z,102466.28
2019-02-16T08:18:26.804Z,102452.25
2019-02-16T08:21:30.057Z,102447.05
2019-02-16T08:24:39.328Z,102434.52
2019-02-16T08:27:41.257Z,102461.67
2019-02-16T08:30:41.253Z,102433.06
2019-02-16T08:33:32.198Z,102443.59
2019-02-16T08:36:40.488Z,102432.38
2019-02-16T08:39:48.939Z,102448.23
2019-02-16T08:42:57.902Z,102418.08
2019-02-16T08:45:49.175Z,102442.47
2019-02-16T08:48:57.486Z,102419.00
2019-02-16T08:51:54.752Z,102442.18
2019-02-16T08:55:03.428Z,102437.58
2019-02-16T08:57:54.851Z,102440.39
2019-02-16T09:01:03.287Z,102434.78
2019-02-16T09:03:52.549Z,102405.55
2019-02-16T09:07:20.221Z,102412.52
2019-02-16T09:13:19.058Z,102435.98
2019-02-16T09:16:27.339Z,102427.26
2019-02-16T09:19:21.807Z,102388.67
2019-02-16T09:22:30.601Z,102389.66
2019-02-16T09:28:35.632Z,102389.52
2019-02-16T09:31:36.279Z,102412.45
2019-02-16T09:34:45.102Z,102378.95
2019-02-16T09:37:49.195Z,102384.84
2019-02-16T09:40:58.430Z,102396.30
2019-02-16T09:44:00.069Z,102394.02
2019-02-16T09:47:09.337Z,102394.97
2019-02-16T09:50:10.792Z,102414.14
2019-02-16T09:53:19.290Z,102424.64
2019-02-16T09:56:21.767Z,102394.45
2019-02-16T09:59:30.332Z,102396.44
2019-02-16T10:02:31.998Z,102434.60
2019-02-16T10:05:32.349Z,102406.95
2019-02-16T10:11:39.140Z,102426.83
2019-02-16T10:14:39.895Z,102396.50
2019-02-16T10:17:48.159Z,102395.56
2019-02-16T10:20:49.137Z,102433.30
2019-02-16T10:23:57.386Z,102400.91
2019-02-16T10:26:58.498Z,102444.25
2019-02-16T10:30:06.781Z,102420.57
2019-02-16T10:33:06.198Z,102425.03
2019-02-16T10:36:14.403Z,102453.87
2019-02-16T10:39:19.483Z,102430.89
2019-02-16T10:42:27.738Z,102435.75
2019-02-16T10:45:25.188Z,102429.03
2019-02-16T10:48:23.392Z,102437.25
2019-02-16T10:51:30.316Z,102421.55
2019-02-16T10:54:27.995Z,102427.93
2019-02-16T10:57:27.362Z,102423.28
2019-02-16T11:00:35.613Z,102439.70
2019-02-16T11:03:43.091Z,102443.30
2019-02-16T11:06:52.378Z,102419.23
2019-02-16T11:09:53.718Z,102451.15
2019-02-16T11:13:02.004Z,102448.14
2019-02-16T11:15:54.213Z,102419.39
2019-02-16T11:19:03.496Z,102412.78
2019-02-16T11:22:06.065Z,102420.23
2019-02-16T11:25:14.334Z,102428.34
2019-02-16T11:28:18.135Z,102415.82
2019-02-16T11:31:26.357Z,102418.59
2019-02-16T11:34:16.277Z,102424.24
2019-02-16T11:37:24.534Z,102419.34
2019-02-16T11:40:19.069Z,102415.25
2019-02-16T11:43:27.354Z,102413.48
2019-02-16T11:46:28.093Z,102384.87
2019-02-16T11:49:36.344Z,102379.30
2019-02-16T11:52:26.914Z,102388.36
2019-02-16T11:55:36.191Z,102390.38
2019-02-16T11:58:39.358Z,102405.26
2019-02-16T12:01:47.701Z,102398.41
2019-02-16T12:04:54.846Z,102400.33
2019-02-16T12:08:04.118Z,102407.02
2019-02-16T12:11:05.711Z,102401.52
2019-02-16T12:13:54.837Z,102403.05
2019-02-16T12:16:56.446Z,102392.81
2019-02-16T12:19:52.694Z,102361.08
2019-02-16T12:22:54.254Z,102356.13
2019-02-16T12:26:02.828Z,102388.45
2019-02-16T12:29:03.370Z,102389.64
2019-02-16T12:32:11.636Z,102365.58
2019-02-16T12:35:14.426Z,102388.30
2019-02-16T12:38:22.675Z,102382.43
2019-02-16T12:44:49.486Z,102351.31
2019-02-16T12:47:39.924Z,102347.90
2019-02-16T12:50:48.474Z,102373.88
2019-02-16T12:53:37.778Z,102371.77
2019-02-16T12:56:46.378Z,102374.92
2019-02-16T12:59:48.228Z,102370.97
2019-02-16T13:02:52.947Z,102344.50
2019-02-16T13:06:01.181Z,102335.70
2019-02-16T13:08:56.055Z,102370.05
2019-02-16T13:15:06.541Z,102331.61
2019-02-16T13:21:15.557Z,102335.66
2019-02-16T13:27:20.467Z,102331.27
2019-02-16T13:30:21.925Z,102327.53
2019-02-16T13:33:30.255Z,102328.56
2019-02-16T13:36:17.681Z,102320.88
2019-02-16T13:39:47.224Z,102317.44
2019-02-16T13:42:39.440Z,102346.84
2019-02-16T13:45:24.995Z,102350.92
2019-02-16T13:48:14.224Z,102339.13
2019-02-16T13:51:15.690Z,102344.23
2019-02-16T13:54:16.586Z,102315.52
2019-02-16T13:57:24.935Z,102314.53
2019-02-16T14:00:19.399Z,102345.98
2019-02-16T14:03:19.155Z,102343.92
2019-02-16T14:06:20.514Z,102342.78
2019-02-16T14:09:21.495Z,102300.59
2019-02-16T14:12:29.742Z,102292.96
2019-02-16T14:15:31.678Z,102331.67
2019-02-16T14:21:22.341Z,102323.23
2019-02-16T14:27:14.664Z,102287.06
2019-02-16T14:33:07.337Z,102277.86
2019-02-16T14:35:57.371Z,102283.95
2019-02-16T14:38:44.873Z,102303.53
2019-02-16T14:44:41.690Z,102311.48
2019-02-16T14:50:19.502Z,102296.36
2019-02-16T14:53:08.947Z,102326.62
2019-02-16T14:55:54.795Z,102293.57
2019-02-16T14:58:25.059Z,102318.51
2019-02-16T15:01:07.613Z,102298.88
2019-02-16T15:03:56.984Z,102300.92
2019-02-16T15:06:38.850Z,102297.80
2019-02-16T15:09:28.222Z,102326.47
2019-02-16T15:12:14.510Z,102301.25
2019-02-16T15:15:04.237Z,102290.71
2019-02-16T15:17:46.532Z,102295.64
2019-02-16T15:20:36.148Z,102296.42
2019-02-16T15:26:13.783Z,102290.73
2019-02-16T15:29:03.464Z,102323.91
2019-02-16T15:31:45.571Z,102323.83
2019-02-16T15:37:22.386Z,102318.78
2019-02-16T15:40:11.836Z,102293.30
2019-02-16T15:42:53.627Z,102325.37
2019-02-16T15:45:43.355Z,102326.34
2019-02-16T15:48:25.645Z,102324.78
2019-02-16T15:51:07.917Z,102299.65
2019-02-16T15:53:57.294Z,102328.34
2019-02-16T15:56:39.510Z,102330.92
2019-02-16T15:59:35.027Z,102296.70
2019-02-16T16:02:12.922Z,102307.05
2019-02-16T16:04:56.718Z,102333.31
2019-02-16T16:10:45.148Z,102345.89
2019-02-16T16:13:53.433Z,102323.86
2019-02-16T16:16:54.615Z,102325.34
2019-02-16T16:20:17.713Z,102353.81
2019-02-16T16:22:53.795Z,102362.88
2019-02-16T16:26:02.059Z,102326.69
2019-02-16T16:29:00.203Z,102361.39
2019-02-16T16:34:38.028Z,102333.73
2019-02-16T16:37:26.028Z,102334.71
2019-02-16T16:40:34.296Z,102337.65
2019-02-16T16:46:38.138Z,102372.81
2019-02-16T16:49:46.675Z,102336.67
2019-02-16T16:52:46.968Z,102336.18
2019-02-16T16:55:48.274Z,102341.09
2019-02-16T16:58:38.890Z,102347.66
2019-02-16T17:01:47.141Z,102378.28
2019-02-16T17:04:48.329Z,102372.36
2019-02-16T17:07:39.499Z,102362.49
2019-02-16T17:10:47.787Z,102392.32
2019-02-16T17:13:49.183Z,102354.48
2019-02-16T17:16:38.603Z,102388.05
2019-02-16T17:19:37.152Z,102390.27
2019-02-16T17:22:58.067Z,102364.34
2019-02-16T17:25:54.108Z,102391.98
2019-02-16T17:28:47.036Z,102372.09
2019-02-16T17:31:23.281Z,102401.42
2019-02-16T17:34:31.540Z,102371.08
2019-02-16T17:37:22.662Z,102403.02
2019-02-16T17:40:31.121Z,102403.84
2019-02-16T17:43:35.044Z,102372.42
2019-02-16T17:46:43.659Z,102374.86
2019-02-16T17:49:51.881Z,102385.66
2019-02-16T17:53:00.167Z,102376.30
2019-02-16T17:56:01.717Z,102390.53
2019-02-16T17:59:10.031Z,102384.58
2019-02-16T18:02:16.910Z,102389.95
2019-02-16T18:05:25.307Z,102422.30
2019-02-16T18:08:28.876Z,102430.52
2019-02-16T18:11:39.279Z,102437.66
2019-02-16T18:14:40.452Z,102414.62
2019-02-16T18:20:45.782Z,102414.19
2019-02-16T18:23:47.212Z,102429.26
2019-02-16T18:26:56.488Z,102435.94
2019-02-16T18:30:02.710Z,102445.78
2019-02-16T18:36:15.860Z,102417.52
2019-02-16T18:39:03.039Z,102417.13
2019-02-16T18:42:04.154Z,102429.00
2019-02-16T18:45:08.409Z,102437.67
2019-02-16T18:48:16.724Z,102410.25
2019-02-16T18:51:23.415Z,102407.91
2019-02-16T18:54:24.780Z,102409.23
2019-02-16T18:57:33.930Z,102407.26
2019-02-16T19:00:21.945Z,102420.20
2019-02-16T19:03:20.578Z,102404.38
2019-02-16T19:06:24.802Z,102436.04
2019-02-16T19:09:32.978Z,102409.37
2019-02-16T19:12:30.349Z,102430.39
2019-02-16T19:15:38.620Z,102395.09
2019-02-16T19:18:45.803Z,102427.47
2019-02-16T19:21:54.073Z,102390.78
2019-02-16T19:27:56.296Z,102432.83
2019-02-16T19:30:58.473Z,102392.63
2019-02-16T19:33:59.714Z,102428.88
2019-02-16T19:37:07.985Z,102429.79
2019-02-16T19:40:11.919Z,102419.13
2019-02-16T19:43:13.026Z,102406.86
2019-02-16T19:46:14.105Z,102430.23
2019-02-16T19:49:37.059Z,102395.91
2019-02-16T19:52:01.230Z,102444.33
2019-02-16T19:55:09.470Z,102407.89
2019-02-16T19:58:25.814Z,102438.76
2019-02-16T20:01:20.880Z,102441.86
2019-02-16T20:04:25.042Z,102435.76
2019-02-16T20:07:33.393Z,102430.43
2019-02-16T20:10:37.157Z,102391.12
2019-02-16T20:13:45.398Z,102390.16
2019-02-16T20:16:49.212Z,102379.70
2019-02-16T20:19:57.747Z,102417.63
2019-02-16T20:22:59.623Z,102417.95
2019-02-16T20:26:07.909Z,102425.09
2019-02-16T20:29:09.175Z,102422.03
2019-02-16T20:32:05.026Z,102386.86
2019-02-16T20:35:05.997Z,102397.03
2019-02-16T20:38:15.295Z,102393.40
2019-02-16T20:41:18.052Z,102403.89
2019-02-16T20:44:22.039Z,102406.39
2019-02-16T20:47:24.363Z,102403.88
2019-02-16T20:50:37.692Z,102413.84
2019-02-16T20:53:41.507Z,102418.45
2019-02-16T20:57:12.833Z,102414.05
2019-02-16T21:00:15.846Z,102420.42
2019-02-16T21:03:29.650Z,102442.16
2019-02-16T21:06:33.969Z,102410.14
2019-02-16T21:12:49.173Z,102405.64
2019-02-16T21:19:49.519Z,102450.83
2019-02-16T21:22:58.585Z,102451.73
2019-02-16T21:26:10.579Z,102418.39
2019-02-16T21:32:42.557Z,102424.41
2019-02-16T21:35:45.691Z,102456.08
2019-02-16T21:41:55.811Z,102420.59
2019-02-16T21:45:01.429Z,102422.41
2019-02-16T21:48:32.136Z,102415.15
2019-02-16T21:51:37.700Z,102452.70
2019-02-16T21:55:08.686Z,102446.72
2019-02-16T21:58:12.945Z,102408.33
2019-02-16T22:01:09.062Z,102414.16
2019-02-16T22:04:20.395Z,102445.44
2019-02-16T22:10:25.716Z,102414.45
2019-02-16T22:13:13.872Z,102415.23
2019-02-16T22:16:08.164Z,102449.68
2019-02-16T22:18:54.910Z,102449.87
2019-02-16T22:21:48.614Z,102428.61
2019-02-16T22:24:35.015Z,102451.56
2019-02-16T22:27:48.356Z,102421.47
2019-02-16T22:39:55.056Z,102421.91
2019-02-16T22:45:48.106Z,102463.91
2019-02-16T22:48:33.633Z,102460.38
2019-02-16T22:54:19.189Z,102441.47
2019-02-16T23:00:53.396Z,102462.91
2019-02-16T23:03:41.124Z,102452.80
2019-02-16T23:06:55.122Z,102448.02
2019-02-16T23:09:40.521Z,102484.42
2019-02-16T23:12:30.480Z,102470.05
2019-02-16T23:15:12.824Z,102447.33
2019-02-16T23:17:57.440Z,102481.24
2019-02-16T23:23:47.666Z,102475.26
2019-02-16T23:26:36.923Z,102441.42
2019-02-16T23:29:18.981Z,102477.70
2019-02-16T23:31:49.242Z,102476.00
2019-02-16T23:37:33.840Z,102442.68
2019-02-16T23:40:17.738Z,102434.74
2019-02-16T23:43:07.444Z,102434.55
2019-02-16T23:45:50.437Z,102437.32
2019-02-16T23:48:53.985Z,102473.80
2019-02-16T23:54:25.564Z,102439.86
